Time;durP1;ratioP1;P1;durP2;ratioP2;P2;SDS_P1;SDS_P2;PMS_P1;PMS_P2;Temp;Humidity;BMP_temperature;BMP_pressure;BME280_temperature;BME280_humidity;BME280_pressure;Samples;Min_cycle;Max_cycle;Signal;HPM_P1;HPM_P2
2022/07/07 00:02:18;;;;;;;5.00;2.37;;;19.00;99.90;;;;;;5036063;28;20627;-35
2022/07/07 00:04:44;;;;;;;2.87;2.53;;;19.00;99.90;;;;;;5046359;28;20182;-35
2022/07/07 00:07:10;;;;;;;2.73;2.30;;;18.90;99.90;;;;;;5032857;28;20499;-35
2022/07/07 00:09:37;;;;;;;3.23;2.70;;;18.90;99.90;;;;;;5032776;28;20349;-35
2022/07/07 00:12:03;;;;;;;4.60;3.30;;;18.90;99.90;;;;;;5043353;28;20461;-35
2022/07/07 00:14:28;;;;;;;7.40;2.70;;;18.90;99.90;;;;;;5048411;28;20478;-35
2022/07/07 00:16:54;;;;;;;5.50;3.07;;;18.90;99.90;;;;;;5043395;28;20424;-35
2022/07/07 00:19:20;;;;;;;7.67;3.40;;;18.90;99.90;;;;;;5041887;28;20204;-35
2022/07/07 00:21:46;;;;;;;3.63;2.93;;;19.00;99.90;;;;;;5042668;28;20186;-35
2022/07/07 00:24:11;;;;;;;4.47;2.70;;;18.90;99.90;;;;;;5032592;28;20191;-35
2022/07/07 00:26:37;;;;;;;6.43;3.30;;;18.90;99.90;;;;;;5031779;28;20562;-35
2022/07/07 00:29:03;;;;;;;3.90;3.20;;;18.90;99.90;;;;;;5043103;28;20182;-35
2022/07/07 00:31:28;;;;;;;4.00;3.40;;;18.90;99.90;;;;;;5051849;28;20217;-35
2022/07/07 00:33:54;;;;;;;7.87;3.70;;;18.80;99.90;;;;;;5052194;28;20186;-35
2022/07/07 00:36:20;;;;;;;5.67;3.00;;;18.90;99.90;;;;;;5049321;28;20293;-35
2022/07/07 00:38:46;;;;;;;4.67;3.10;;;18.90;99.90;;;;;;5046242;28;20531;-35
2022/07/07 00:41:11;;;;;;;3.80;3.43;;;18.80;99.90;;;;;;5035138;28;20221;-35
2022/07/07 00:43:40;;;;;;;4.80;3.17;;;18.80;99.90;;;;;;5032022;28;20269;-35
2022/07/07 00:46:07;;;;;;;4.80;2.97;;;18.90;99.90;;;;;;5033294;28;20202;-35
2022/07/07 00:48:35;;;;;;;4.57;3.10;;;18.80;99.90;;;;;;5040431;28;20467;-35
2022/07/07 00:51:03;;;;;;;6.33;3.30;;;18.90;99.90;;;;;;5031774;28;20460;-35
2022/07/07 00:53:29;;;;;;;5.33;3.10;;;18.90;99.90;;;;;;5031749;28;20413;-35
2022/07/07 00:55:54;;;;;;;3.57;3.27;;;18.90;99.90;;;;;;5031773;28;20424;-35
2022/07/07 00:58:20;;;;;;;4.50;2.87;;;18.90;99.90;;;;;;5031093;28;20956;-35
2022/07/07 01:00:46;;;;;;;5.17;2.80;;;18.90;99.90;;;;;;5031788;28;20784;-35
2022/07/07 01:03:13;;;;;;;4.17;3.60;;;18.80;99.90;;;;;;5030571;28;20286;-35
2022/07/07 01:05:40;;;;;;;5.33;3.13;;;18.70;99.90;;;;;;5030078;28;20528;-35
2022/07/07 01:08:08;;;;;;;8.30;2.90;;;18.70;99.90;;;;;;5031131;28;20940;-35
2022/07/07 01:10:35;;;;;;;3.73;3.10;;;18.70;99.90;;;;;;5031409;28;20457;-35
2022/07/07 01:13:04;;;;;;;3.57;2.97;;;18.60;99.90;;;;;;5031643;28;20417;-35
2022/07/07 01:15:30;;;;;;;3.87;2.80;;;18.60;99.90;;;;;;5038874;28;20405;-35
2022/07/07 01:17:56;;;;;;;5.53;2.70;;;18.60;99.90;;;;;;5038370;28;20409;-35
2022/07/07 01:20:22;;;;;;;3.20;2.90;;;18.70;99.90;;;;;;5031370;28;20428;-35
2022/07/07 01:22:51;;;;;;;3.50;2.63;;;18.70;99.90;;;;;;5037274;28;20800;-35
2022/07/07 01:25:17;;;;;;;3.83;3.27;;;18.70;99.90;;;;;;5031274;28;20589;-35
2022/07/07 01:27:42;;;;;;;4.70;2.57;;;18.70;99.90;;;;;;5030684;28;20447;-35
2022/07/07 01:30:08;;;;;;;4.50;3.03;;;18.70;99.90;;;;;;5029849;28;20986;-35
2022/07/07 01:32:34;;;;;;;3.00;2.80;;;18.70;99.90;;;;;;5030977;28;20179;-35
2022/07/07 01:35:00;;;;;;;3.57;3.20;;;18.70;99.90;;;;;;5029839;28;20417;-35
2022/07/07 01:37:26;;;;;;;5.40;3.30;;;18.70;99.90;;;;;;5030708;28;20453;-35
2022/07/07 01:39:52;;;;;;;4.90;3.73;;;18.70;99.90;;;;;;5030971;28;20322;-35
2022/07/07 01:42:18;;;;;;;4.47;3.63;;;18.70;99.90;;;;;;5030792;28;20421;-35
2022/07/07 01:44:44;;;;;;;4.00;3.70;;;18.70;99.90;;;;;;5030928;28;20470;-35
2022/07/07 01:47:12;;;;;;;4.17;3.23;;;18.70;99.90;;;;;;5040136;28;20177;-35
2022/07/07 01:49:38;;;;;;;4.03;3.27;;;18.60;99.90;;;;;;5030932;28;20421;-35
2022/07/07 01:52:05;;;;;;;3.93;3.50;;;18.50;99.90;;;;;;5030631;28;20475;-35
2022/07/07 01:54:33;;;;;;;4.10;3.40;;;18.50;99.90;;;;;;5030802;28;20421;-35
2022/07/07 01:56:59;;;;;;;3.33;2.90;;;18.50;99.90;;;;;;5029883;28;20448;-35
2022/07/07 01:59:25;;;;;;;3.20;2.90;;;18.50;99.90;;;;;;5030691;28;20809;-35
2022/07/07 02:01:51;;;;;;;3.67;3.30;;;18.60;99.90;;;;;;5030483;28;20252;-35
2022/07/07 02:04:17;;;;;;;4.00;3.13;;;18.60;99.90;;;;;;5030671;28;20425;-35
2022/07/07 02:06:43;;;;;;;3.63;3.20;;;18.50;99.90;;;;;;5028292;28;20456;-35
2022/07/07 02:09:08;;;;;;;4.47;3.20;;;18.60;99.90;;;;;;5030459;28;20772;-35
2022/07/07 02:11:34;;;;;;;6.17;3.60;;;18.50;99.90;;;;;;5030433;28;20217;-35
2022/07/07 02:14:01;;;;;;;5.17;3.83;;;18.60;99.90;;;;;;5030304;28;20178;-35
2022/07/07 02:16:27;;;;;;;6.00;5.00;;;18.60;99.90;;;;;;5030384;28;20795;-35
2022/07/07 02:18:55;;;;;;;5.93;4.80;;;18.50;99.90;;;;;;5029732;28;20442;-35
2022/07/07 02:21:22;;;;;;;4.70;4.20;;;18.60;99.90;;;;;;5034602;28;20445;-35
2022/07/07 02:23:49;;;;;;;6.03;4.00;;;18.60;99.90;;;;;;5029065;28;20504;-35
2022/07/07 02:26:15;;;;;;;5.83;5.33;;;18.50;99.90;;;;;;5030248;28;20424;-35
2022/07/07 02:28:41;;;;;;;5.57;5.03;;;18.60;99.90;;;;;;5036844;28;20420;-35
2022/07/07 02:31:08;;;;;;;6.83;5.20;;;18.50;99.90;;;;;;5049907;28;20460;-35
2022/07/07 02:33:34;;;;;;;6.00;5.30;;;18.50;99.90;;;;;;5049967;28;20416;-35
2022/07/07 02:36:00;;;;;;;8.90;5.23;;;18.50;99.90;;;;;;5049981;28;20856;-35
2022/07/07 02:38:26;;;;;;;5.53;5.10;;;18.50;99.90;;;;;;5049399;28;20830;-35
2022/07/07 02:40:52;;;;;;;6.90;6.20;;;18.50;99.90;;;;;;5049813;28;20432;-35
2022/07/07 02:43:19;;;;;;;7.03;5.70;;;18.50;99.90;;;;;;5049755;28;20732;-35
2022/07/07 02:45:47;;;;;;;7.27;5.57;;;18.40;99.90;;;;;;5047017;28;20236;-35
2022/07/07 02:48:15;;;;;;;6.07;4.97;;;18.30;99.90;;;;;;5040314;28;20410;-35
2022/07/07 02:50:41;;;;;;;7.00;5.80;;;18.30;99.90;;;;;;5029500;28;20543;-35
2022/07/07 02:53:08;;;;;;;6.33;5.70;;;18.30;99.90;;;;;;5045438;28;20419;-35
2022/07/07 02:55:34;;;;;;;6.37;5.53;;;18.40;99.90;;;;;;5034790;28;20516;-35
2022/07/07 02:58:00;;;;;;;5.80;5.30;;;18.40;99.90;;;;;;5029170;28;21190;-36
2022/07/07 03:00:27;;;;;;;7.10;5.63;;;18.40;99.90;;;;;;5029523;28;20193;-35
2022/07/07 03:02:54;;;;;;;6.40;5.40;;;18.40;99.90;;;;;;5029984;28;20487;-35
2022/07/07 03:05:23;;;;;;;6.50;5.90;;;18.40;99.90;;;;;;5028128;28;20428;-35
2022/07/07 03:07:49;;;;;;;7.87;5.47;;;18.40;99.90;;;;;;5029074;28;20874;-35
2022/07/07 03:10:15;;;;;;;7.60;5.37;;;18.30;99.90;;;;;;5029958;28;20503;-35
2022/07/07 03:12:41;;;;;;;6.17;5.60;;;18.30;99.90;;;;;;5044355;28;20442;-35
2022/07/07 03:15:08;;;;;;;7.53;5.77;;;18.40;99.90;;;;;;5033754;28;20421;-35
2022/07/07 03:17:35;;;;;;;5.97;5.37;;;18.40;99.90;;;;;;5028942;28;20405;-35
2022/07/07 03:20:02;;;;;;;7.00;6.03;;;18.40;99.90;;;;;;5029724;28;20436;-35
2022/07/07 03:22:28;;;;;;;7.20;5.90;;;18.40;99.90;;;;;;5034970;28;20516;-35
2022/07/07 03:24:54;;;;;;;5.83;5.03;;;18.40;99.90;;;;;;5029497;28;20547;-35
2022/07/07 03:27:19;;;;;;;6.93;6.20;;;18.30;99.90;;;;;;5031912;28;20277;-35
2022/07/07 03:29:45;;;;;;;6.33;5.73;;;18.30;99.90;;;;;;5046577;28;20273;-35
2022/07/07 03:32:11;;;;;;;6.77;5.30;;;18.20;99.90;;;;;;5033321;28;20206;-35
2022/07/07 03:34:37;;;;;;;6.53;5.93;;;18.20;99.90;;;;;;5033476;28;20417;-35
2022/07/07 03:37:03;;;;;;;6.83;6.20;;;18.20;99.90;;;;;;5046059;28;20436;-35
2022/07/07 03:39:29;;;;;;;7.00;6.13;;;18.20;99.90;;;;;;5036188;28;20273;-35
2022/07/07 03:41:54;;;;;;;6.70;6.10;;;18.20;99.90;;;;;;5043758;28;20514;-35
2022/07/07 03:44:20;;;;;;;7.50;6.10;;;18.20;99.90;;;;;;5036840;28;20214;-35
2022/07/07 03:46:46;;;;;;;7.03;5.90;;;18.20;99.90;;;;;;5032595;28;20199;-36
2022/07/07 03:49:11;;;;;;;7.80;6.20;;;18.10;99.90;;;;;;5033130;28;20194;-36
2022/07/07 03:51:37;;;;;;;6.90;6.30;;;18.00;99.90;;;;;;5033173;28;20217;-35
2022/07/07 03:54:03;;;;;;;6.40;5.80;;;18.00;99.90;;;;;;5037624;28;20202;-36
2022/07/07 03:56:29;;;;;;;6.63;6.03;;;18.00;99.90;;;;;;5042637;28;20278;-35
2022/07/07 03:58:55;;;;;;;6.70;6.10;;;18.00;99.90;;;;;;5032365;28;20475;-36
2022/07/07 04:01:21;;;;;;;6.60;5.90;;;18.00;99.90;;;;;;5033084;28;20672;-35
2022/07/07 04:03:46;;;;;;;7.50;5.67;;;17.90;99.90;;;;;;5032887;28;20637;-35
2022/07/07 04:06:12;;;;;;;6.17;5.40;;;17.90;99.90;;;;;;5031237;28;20221;-35
2022/07/07 04:08:38;;;;;;;6.33;5.70;;;17.90;99.90;;;;;;5031996;28;20714;-35
2022/07/07 04:11:04;;;;;;;8.23;6.30;;;17.90;99.90;;;;;;5032753;28;20223;-36
2022/07/07 04:13:29;;;;;;;8.17;5.83;;;17.90;99.90;;;;;;5032717;28;20194;-36
2022/07/07 04:15:56;;;;;;;6.37;5.77;;;17.90;99.90;;;;;;5032574;28;20929;-35
2022/07/07 04:18:21;;;;;;;7.00;5.67;;;17.90;99.90;;;;;;5031891;28;20188;-35
2022/07/07 04:20:47;;;;;;;8.23;5.93;;;18.00;99.90;;;;;;5037723;28;20424;-35
2022/07/07 04:23:13;;;;;;;8.70;6.47;;;17.90;99.90;;;;;;5044520;28;20188;-35
2022/07/07 04:25:39;;;;;;;6.50;5.80;;;17.80;99.90;;;;;;5032431;28;20190;-35
2022/07/07 04:28:04;;;;;;;6.20;5.60;;;17.70;99.90;;;;;;5034693;28;20189;-35
2022/07/07 04:30:30;;;;;;;6.40;5.30;;;17.60;99.90;;;;;;5052099;28;20669;-35
2022/07/07 04:32:56;;;;;;;6.50;5.80;;;17.60;99.90;;;;;;5052288;28;20197;-35
2022/07/07 04:35:21;;;;;;;8.43;5.70;;;17.70;99.90;;;;;;5052288;28;20182;-36
2022/07/07 04:37:47;;;;;;;7.87;5.47;;;17.70;99.90;;;;;;5043779;28;20841;-35
2022/07/07 04:40:13;;;;;;;10.27;6.97;;;17.70;99.90;;;;;;5039575;28;20182;-36
2022/07/07 04:42:38;;;;;;;5.90;5.40;;;17.70;99.90;;;;;;5041226;28;20227;-35
2022/07/07 04:45:04;;;;;;;7.87;5.30;;;17.70;99.90;;;;;;5034729;28;20664;-35
2022/07/07 04:47:30;;;;;;;6.63;5.70;;;17.70;99.90;;;;;;5046989;28;20193;-36
2022/07/07 04:49:56;;;;;;;5.73;5.23;;;17.70;99.90;;;;;;5042511;28;20916;-35
2022/07/07 04:52:21;;;;;;;5.50;5.00;;;17.80;99.90;;;;;;5039049;28;20194;-35
2022/07/07 04:54:47;;;;;;;6.10;5.00;;;17.80;99.90;;;;;;5041465;28;20190;-35
2022/07/07 04:57:13;;;;;;;6.90;5.73;;;17.80;99.90;;;;;;5038012;28;20178;-35
2022/07/07 04:59:40;;;;;;;8.20;5.90;;;17.80;99.90;;;;;;5049464;28;20774;-35
2022/07/07 05:02:06;;;;;;;7.07;6.40;;;17.80;99.90;;;;;;5048695;28;20178;-35
2022/07/07 05:04:32;;;;;;;8.03;6.37;;;17.80;99.90;;;;;;5031672;28;20434;-35
2022/07/07 05:06:58;;;;;;;6.40;5.80;;;17.70;99.90;;;;;;5029837;28;21240;-35
2022/07/07 05:09:23;;;;;;;11.30;6.43;;;17.80;99.90;;;;;;5031732;28;20199;-35
2022/07/07 05:11:49;;;;;;;6.83;6.20;;;17.80;99.90;;;;;;5031624;28;20214;-35
2022/07/07 05:14:15;;;;;;;12.00;6.87;;;17.80;99.90;;;;;;5034255;28;20185;-35
2022/07/07 05:16:41;;;;;;;8.60;7.57;;;17.80;99.90;;;;;;5047067;28;20182;-35
2022/07/07 05:19:09;;;;;;;11.47;7.40;;;17.70;99.90;;;;;;5045813;28;20177;-35
2022/07/07 05:21:34;;;;;;;8.10;7.40;;;17.80;99.90;;;;;;5039721;28;20193;-36
2022/07/07 05:24:00;;;;;;;8.50;7.70;;;17.80;99.90;;;;;;5031465;28;20417;-35
2022/07/07 05:26:26;;;;;;;8.40;7.60;;;17.70;99.90;;;;;;5034846;28;20276;-36
2022/07/07 05:28:51;;;;;;;7.30;6.70;;;17.80;99.90;;;;;;5038361;28;20182;-35
2022/07/07 05:31:17;;;;;;;7.93;6.13;;;17.80;99.90;;;;;;5031109;28;20206;-35
2022/07/07 05:33:43;;;;;;;5.70;5.20;;;17.90;99.90;;;;;;5031163;28;20711;-35
2022/07/07 05:36:09;;;;;;;5.33;3.87;;;17.90;99.90;;;;;;5030919;28;20281;-35
2022/07/07 05:38:35;;;;;;;4.50;3.30;;;17.90;99.90;;;;;;5030410;28;20449;-35
2022/07/07 05:41:01;;;;;;;2.90;2.60;;;17.90;99.90;;;;;;5030776;28;20487;-35
2022/07/07 05:43:27;;;;;;;3.37;3.07;;;17.90;99.90;;;;;;5031011;28;20695;-35
2022/07/07 05:45:54;;;;;;;3.47;2.53;;;17.80;99.90;;;;;;5030994;28;20425;-35
2022/07/07 05:48:20;;;;;;;2.87;2.53;;;17.80;99.90;;;;;;5040663;28;20464;-35
2022/07/07 05:50:46;;;;;;;3.37;2.60;;;17.80;99.90;;;;;;5029888;28;20456;-35
2022/07/07 05:53:11;;;;;;;3.17;2.87;;;17.60;99.90;;;;;;5031119;28;20470;-35
2022/07/07 05:55:37;;;;;;;2.33;2.00;;;17.60;99.90;;;;;;5042235;28;20428;-35
2022/07/07 05:58:03;;;;;;;2.93;2.50;;;17.60;99.90;;;;;;5043373;28;20640;-35
2022/07/07 06:00:29;;;;;;;3.30;3.00;;;17.70;99.90;;;;;;5034619;28;20475;-35
2022/07/07 06:02:55;;;;;;;3.73;3.17;;;17.70;99.90;;;;;;5030501;28;20464;-35
2022/07/07 06:05:22;;;;;;;3.20;2.90;;;17.70;99.90;;;;;;5029460;28;20178;-35
2022/07/07 06:07:47;;;;;;;3.70;3.40;;;17.60;99.90;;;;;;5028776;28;20486;-35
2022/07/07 06:10:14;;;;;;;3.50;3.30;;;17.70;99.90;;;;;;5029456;28;20453;-35
2022/07/07 06:12:40;;;;;;;3.50;3.20;;;17.60;99.90;;;;;;5030299;28;20178;-35
2022/07/07 06:15:06;;;;;;;4.03;3.73;;;17.70;99.90;;;;;;5030680;28;20429;-35
2022/07/07 06:17:32;;;;;;;4.67;3.90;;;17.90;99.90;;;;;;5029703;28;20756;-36
2022/07/07 06:19:58;;;;;;;3.90;3.50;;;17.90;99.90;;;;;;5043118;28;20432;-36
2022/07/07 06:22:25;;;;;;;4.80;4.40;;;18.00;99.90;;;;;;5037976;28;20210;-36
2022/07/07 06:24:51;;;;;;;6.10;5.60;;;18.00;99.90;;;;;;5029368;28;20851;-35
2022/07/07 06:27:16;;;;;;;8.53;6.90;;;18.00;99.90;;;;;;5029177;28;20414;-35
2022/07/07 06:29:42;;;;;;;7.33;5.60;;;18.00;99.90;;;;;;5046012;28;20626;-35
2022/07/07 06:32:08;;;;;;;7.30;6.60;;;18.00;99.90;;;;;;5049858;28;20205;-35
2022/07/07 06:34:34;;;;;;;7.30;6.70;;;18.00;99.90;;;;;;5045237;28;20826;-35
2022/07/07 06:36:59;;;;;;;7.50;6.80;;;18.00;99.90;;;;;;5038337;28;20201;-35
2022/07/07 06:39:25;;;;;;;6.30;5.90;;;18.00;99.90;;;;;;5037786;28;20181;-35
2022/07/07 06:41:51;;;;;;;6.23;5.73;;;18.10;99.90;;;;;;5038077;28;20183;-35
2022/07/07 06:44:17;;;;;;;5.40;5.00;;;18.00;99.90;;;;;;5038865;28;20669;-35
2022/07/07 06:46:43;;;;;;;5.77;5.27;;;18.10;99.90;;;;;;5038088;28;20421;-35
2022/07/07 06:49:09;;;;;;;5.60;5.10;;;18.00;99.90;;;;;;5035981;28;20189;-35
2022/07/07 06:51:35;;;;;;;5.53;5.03;;;18.00;99.90;;;;;;5029932;28;20213;-35
2022/07/07 06:54:01;;;;;;;5.00;4.50;;;18.00;99.90;;;;;;5030133;28;20417;-35
2022/07/07 06:56:27;;;;;;;4.43;4.03;;;18.00;99.90;;;;;;5029805;28;20449;-35
2022/07/07 06:58:52;;;;;;;4.30;3.83;;;18.00;99.90;;;;;;5029332;28;20467;-35
2022/07/07 07:01:19;;;;;;;4.50;4.10;;;18.00;99.90;;;;;;5030097;28;20673;-36
2022/07/07 07:03:45;;;;;;;3.73;3.43;;;18.00;99.90;;;;;;5036715;28;20190;-36
2022/07/07 07:06:11;;;;;;;3.67;3.37;;;18.00;99.90;;;;;;5032935;28;20443;-36
2022/07/07 07:08:36;;;;;;;4.23;3.47;;;17.90;99.90;;;;;;5033271;28;20190;-35
2022/07/07 07:11:03;;;;;;;3.87;3.43;;;17.90;99.90;;;;;;5032444;28;20456;-35
2022/07/07 07:13:30;;;;;;;3.00;2.70;;;17.90;99.90;;;;;;5032564;28;20192;-35
2022/07/07 07:15:56;;;;;;;5.50;2.77;;;18.00;99.90;;;;;;5033727;28;20416;-35
2022/07/07 07:18:21;;;;;;;7.03;2.80;;;18.00;99.90;;;;;;5033171;28;20771;-35
2022/07/07 07:20:47;;;;;;;3.13;2.00;;;18.00;99.90;;;;;;5053733;28;20408;-36
2022/07/07 07:23:13;;;;;;;3.37;1.67;;;18.10;99.90;;;;;;5040753;28;20186;-36
2022/07/07 07:25:39;;;;;;;2.83;1.37;;;18.10;99.90;;;;;;5033131;28;20244;-35
2022/07/07 07:28:04;;;;;;;2.10;1.60;;;18.20;99.90;;;;;;5035053;28;20193;-35
2022/07/07 07:30:31;;;;;;;3.00;1.30;;;18.20;99.90;;;;;;5052793;28;20746;-36
2022/07/07 07:32:56;;;;;;;1.00;0.70;;;18.20;99.90;;;;;;5052986;28;20205;-35
2022/07/07 07:35:22;;;;;;;0.70;0.57;;;18.10;99.90;;;;;;5053640;28;20420;-35
2022/07/07 07:37:48;;;;;;;0.70;0.50;;;18.00;99.90;;;;;;5052479;28;20190;-35
2022/07/07 07:40:14;;;;;;;1.70;0.77;;;17.80;99.90;;;;;;5053280;28;20578;-35
2022/07/07 07:42:40;;;;;;;1.90;0.50;;;17.70;99.90;;;;;;5052964;28;20189;-36
2022/07/07 07:45:09;;;;;;;1.57;0.60;;;17.70;99.90;;;;;;5053352;28;20483;-35
2022/07/07 07:47:36;;;;;;;0.90;0.60;;;17.70;99.90;;;;;;5049404;28;20539;-35
2022/07/07 07:50:02;;;;;;;1.20;1.00;;;17.70;99.90;;;;;;5032920;28;20409;-35
2022/07/07 07:52:28;;;;;;;1.47;1.13;;;17.70;99.90;;;;;;5033039;28;20448;-36
2022/07/07 07:54:54;;;;;;;2.57;1.13;;;17.70;99.90;;;;;;5033072;28;21231;-35
2022/07/07 07:57:19;;;;;;;2.40;1.33;;;17.80;99.90;;;;;;5032400;28;20193;-35
2022/07/07 07:59:45;;;;;;;3.77;1.83;;;18.00;99.90;;;;;;5032861;28;20210;-36
2022/07/07 08:02:11;;;;;;;3.13;1.60;;;18.10;99.90;;;;;;5032685;28;20552;-35
2022/07/07 08:04:37;;;;;;;1.97;1.70;;;18.20;99.90;;;;;;5032899;28;20198;-36
2022/07/07 08:07:03;;;;;;;4.33;1.63;;;18.20;99.90;;;;;;5031105;28;20206;-36
2022/07/07 08:09:29;;;;;;;3.30;1.67;;;18.30;99.90;;;;;;5032739;28;20547;-36
2022/07/07 08:11:55;;;;;;;2.83;1.57;;;18.30;99.90;;;;;;5032589;28;20218;-36
2022/07/07 08:14:21;;;;;;;3.90;2.60;;;18.30;99.90;;;;;;5032359;28;20265;-36
2022/07/07 08:16:46;;;;;;;2.53;1.40;;;18.40;99.90;;;;;;5031856;28;20439;-36
2022/07/07 08:19:17;;;;;;;2.73;1.77;;;18.50;99.90;;;;;;5032717;28;20426;-36
2022/07/07 08:21:46;;;;;;;3.07;1.70;;;18.50;99.90;;;;;;5038370;28;20209;-35
2022/07/07 08:24:13;;;;;;;3.00;1.47;;;18.50;99.90;;;;;;5032637;28;20425;-35
2022/07/07 08:26:39;;;;;;;1.20;0.90;;;18.40;99.90;;;;;;5031719;28;20754;-35
2022/07/07 08:29:06;;;;;;;1.23;0.50;;;18.40;99.90;;;;;;5043212;28;20771;-36
2022/07/07 08:31:32;;;;;;;2.03;1.10;;;18.30;99.90;;;;;;5052085;28;20486;-35
2022/07/07 08:33:57;;;;;;;2.00;0.90;;;18.20;99.90;;;;;;5052370;28;20915;-35
2022/07/07 08:36:23;;;;;;;3.63;1.00;;;18.10;99.90;;;;;;5052081;28;20416;-35
2022/07/07 08:38:49;;;;;;;2.20;1.50;;;18.10;99.90;;;;;;5051676;28;20173;-35
2022/07/07 08:41:16;;;;;;;3.63;1.10;;;18.20;99.90;;;;;;5050633;28;20899;-35
2022/07/07 08:43:42;;;;;;;2.53;1.20;;;18.20;99.90;;;;;;5051802;28;20412;-35
2022/07/07 08:46:11;;;;;;;1.90;0.97;;;18.30;99.90;;;;;;5051935;28;20424;-36
2022/07/07 08:48:37;;;;;;;3.97;1.07;;;18.40;99.90;;;;;;5039844;28;20433;-35
2022/07/07 08:51:03;;;;;;;3.00;1.60;;;18.40;99.90;;;;;;5031895;28;20445;-35
2022/07/07 08:53:34;;;;;;;2.10;1.17;;;18.50;99.90;;;;;;5031886;28;20182;-35
2022/07/07 08:56:04;;;;;;;1.73;1.17;;;18.70;99.90;;;;;;5031869;28;20463;-35
2022/07/07 08:58:31;;;;;;;4.03;1.30;;;18.80;99.90;;;;;;5031088;28;20420;-35
2022/07/07 09:00:57;;;;;;;1.43;1.00;;;18.90;99.90;;;;;;5031811;28;20425;-35
2022/07/07 09:03:23;;;;;;;4.40;1.13;;;18.90;99.90;;;;;;5031865;28;20425;-36
2022/07/07 09:05:49;;;;;;;2.40;0.90;;;18.80;99.90;;;;;;5030719;28;20668;-35
2022/07/07 09:08:22;;;;;;;2.60;0.80;;;18.70;99.90;;;;;;5031032;28;20537;-35
2022/07/07 09:10:49;;;;;;;4.73;1.60;;;18.70;99.90;;;;;;5038593;28;20444;-36
2022/07/07 09:13:28;;;;;;;2.27;1.07;;;18.60;99.90;;;;;;5051600;28;20477;-35
2022/07/07 09:15:57;;;;;;;2.50;1.10;;;18.60;99.90;;;;;;5051651;28;20412;-35
2022/07/07 09:18:31;;;;;;;3.00;1.60;;;18.50;99.90;;;;;;5050773;28;20424;-35
2022/07/07 09:20:57;;;;;;;4.87;1.53;;;18.50;99.90;;;;;;5051405;28;20941;-36
2022/07/07 09:23:23;;;;;;;2.40;1.10;;;18.60;99.90;;;;;;5036073;28;20421;-36
2022/07/07 09:25:49;;;;;;;1.60;1.00;;;18.70;99.90;;;;;;5030491;28;20433;-36
2022/07/07 09:28:15;;;;;;;1.90;1.30;;;19.00;99.90;;;;;;5034743;28;20995;-35
2022/07/07 09:30:43;;;;;;;1.97;1.00;;;19.10;99.90;;;;;;5051020;28;20198;-35
2022/07/07 09:33:27;;;;;;;1.80;0.83;;;19.20;99.90;;;;;;5051041;28;20280;-35
2022/07/07 09:38:40;;;;;;;3.13;1.10;;;19.20;99.90;;;;;;5050281;28;20428;-36
2022/07/07 09:41:10;;;;;;;2.80;1.00;;;19.10;99.90;;;;;;5050832;28;20463;-36
2022/07/07 09:43:44;;;;;;;4.70;0.70;;;19.00;99.90;;;;;;5051081;28;20430;-36
2022/07/07 09:46:19;;;;;;;2.07;0.80;;;19.00;99.90;;;;;;5050487;28;20477;-36
2022/07/07 09:48:59;;;;;;;1.87;0.70;;;19.00;99.90;;;;;;5037104;28;20433;-36
2022/07/07 09:51:34;;;;;;;1.07;0.60;;;18.90;99.90;;;;;;5039306;28;20544;-35
2022/07/07 09:54:10;;;;;;;2.00;1.00;;;18.90;99.90;;;;;;5050734;28;20423;-36
2022/07/07 09:56:43;;;;;;;0.70;0.70;;;19.00;99.90;;;;;;5049720;28;21182;-36
2022/07/07 09:59:13;;;;;;;0.93;0.80;;;19.10;99.90;;;;;;5050564;28;21055;-36
2022/07/07 10:01:41;;;;;;;2.10;1.27;;;19.30;99.90;;;;;;5050487;28;20998;-36
2022/07/07 10:04:09;;;;;;;1.43;1.33;;;19.40;99.90;;;;;;5050502;28;20428;-36
2022/07/07 10:06:37;;;;;;;1.60;1.30;;;19.40;99.90;;;;;;5048690;28;20455;-36
2022/07/07 10:09:05;;;;;;;1.67;1.00;;;19.40;99.90;;;;;;5050257;28;20507;-36
2022/07/07 10:11:39;;;;;;;2.37;1.00;;;19.40;99.90;;;;;;5050120;28;20518;-36
2022/07/07 10:14:23;;;;;;;1.80;1.40;;;19.40;99.90;;;;;;5050514;28;20424;-36
2022/07/07 10:16:51;;;;;;;1.07;0.97;;;19.40;99.90;;;;;;5049677;28;20437;-36
2022/07/07 10:19:19;;;;;;;1.60;0.90;;;19.40;99.90;;;;;;5050360;28;20502;-36
2022/07/07 10:21:47;;;;;;;1.60;0.97;;;19.40;99.90;;;;;;5046837;28;20451;-35
2022/07/07 10:24:15;;;;;;;1.43;0.73;;;19.30;99.90;;;;;;5030394;28;20421;-36
2022/07/07 10:26:47;;;;;;;1.37;0.83;;;19.20;99.90;;;;;;5029552;28;20421;-35
2022/07/07 10:29:13;;;;;;;1.37;0.90;;;19.00;99.90;;;;;;5042355;28;20420;-35
2022/07/07 10:31:39;;;;;;;0.77;0.70;;;18.90;99.90;;;;;;5049886;28;20471;-35
2022/07/07 10:34:12;;;;;;;1.73;0.80;;;18.90;99.90;;;;;;5049877;28;20191;-35
2022/07/07 10:36:50;;;;;;;0.90;0.77;;;18.90;99.90;;;;;;5049387;28;20438;-36
2022/07/07 10:39:23;;;;;;;1.20;1.03;;;19.00;99.90;;;;;;5049984;28;20499;-35
2022/07/07 10:42:29;;;;;;;1.20;1.00;;;19.20;99.90;;;;;;5050002;28;20428;-36
2022/07/07 10:44:55;;;;;;;1.37;1.03;;;19.50;99.90;;;;;;5039412;28;21018;-36
2022/07/07 10:47:21;;;;;;;1.20;1.10;;;19.80;99.90;;;;;;5039915;28;20807;-36
2022/07/07 10:49:50;;;;;;;2.40;1.00;;;19.90;99.90;;;;;;5028676;28;20460;-36
2022/07/07 10:52:22;;;;;;;1.97;1.00;;;19.90;99.90;;;;;;5029845;28;20264;-36
2022/07/07 10:54:55;;;;;;;3.17;0.90;;;19.80;99.90;;;;;;5029723;28;20840;-36
2022/07/07 10:57:24;;;;;;;1.07;0.70;;;19.80;99.90;;;;;;5029204;28;20428;-36
2022/07/07 11:00:07;;;;;;;2.17;0.70;;;19.70;99.90;;;;;;5029888;28;20421;-36
2022/07/07 11:02:50;;;;;;;3.77;0.70;;;19.70;99.90;;;;;;5029858;28;20429;-36
2022/07/07 11:05:15;;;;;;;0.70;0.70;;;19.70;99.90;;;;;;5028759;28;20504;-36
2022/07/07 11:07:42;;;;;;;1.10;0.73;;;19.70;99.90;;;;;;5029073;28;20512;-35
2022/07/07 11:10:12;;;;;;;1.00;0.87;;;19.70;99.90;;;;;;5028460;28;20187;-36
2022/07/07 11:12:42;;;;;;;1.17;1.00;;;19.60;99.90;;;;;;5029992;28;20429;-36
2022/07/07 11:15:30;;;;;;;1.73;0.93;;;19.50;99.90;;;;;;5029679;28;20470;-36
2022/07/07 11:17:56;;;;;;;2.40;0.90;;;19.40;99.90;;;;;;5028948;28;20463;-36
2022/07/07 11:20:24;;;;;;;1.00;0.80;;;19.40;99.90;;;;;;5029641;28;20449;-36
2022/07/07 11:22:53;;;;;;;2.80;0.97;;;19.40;99.90;;;;;;5037293;28;20213;-35
2022/07/07 11:25:21;;;;;;;2.93;1.23;;;19.40;99.90;;;;;;5029693;28;20505;-36
2022/07/07 11:27:49;;;;;;;2.37;1.10;;;19.50;99.90;;;;;;5029470;28;20432;-35
2022/07/07 11:30:16;;;;;;;2.17;1.07;;;19.50;99.90;;;;;;5049456;28;20903;-36
2022/07/07 11:32:43;;;;;;;1.83;0.97;;;19.60;99.90;;;;;;5049124;28;20425;-35
2022/07/07 11:35:13;;;;;;;2.63;0.97;;;19.80;99.90;;;;;;5049567;28;20964;-36
2022/07/07 11:37:41;;;;;;;1.43;1.07;;;19.90;99.90;;;;;;5048559;28;20420;-35
2022/07/07 11:40:13;;;;;;;1.73;0.60;;;20.00;99.90;;;;;;5049511;28;20785;-36
2022/07/07 11:42:42;;;;;;;2.47;0.97;;;20.00;99.90;;;;;;5049104;28;20428;-35
2022/07/07 11:45:20;;;;;;;1.53;0.70;;;20.00;99.90;;;;;;5049369;28;20420;-36
2022/07/07 11:47:47;;;;;;;1.00;0.90;;;20.00;99.90;;;;;;5044996;28;20417;-36
2022/07/07 11:50:13;;;;;;;1.00;0.70;;;19.90;99.90;;;;;;5033284;28;20417;-35
2022/07/07 11:52:45;;;;;;;1.07;0.80;;;19.80;99.90;;;;;;5032930;28;20421;-35
2022/07/07 11:55:12;;;;;;;1.40;0.90;;;19.80;99.90;;;;;;5033155;28;20765;-36
2022/07/07 11:57:37;;;;;;;1.50;0.97;;;19.70;99.90;;;;;;5032079;28;20908;-36
2022/07/07 12:00:20;;;;;;;2.00;1.30;;;19.60;99.90;;;;;;5033186;28;20427;-37
2022/07/07 12:02:48;;;;;;;1.93;1.10;;;19.60;99.90;;;;;;5040994;28;20197;-35
2022/07/07 12:05:26;;;;;;;4.07;1.20;;;19.60;99.90;;;;;;5052064;28;20926;-36
2022/07/07 12:07:59;;;;;;;2.30;1.17;;;19.70;99.90;;;;;;5051670;28;21009;-36
2022/07/07 12:10:28;;;;;;;3.60;1.23;;;19.70;99.90;;;;;;5052643;28;20420;-36
2022/07/07 12:13:03;;;;;;;1.47;0.70;;;19.70;99.90;;;;;;5051299;28;20919;-36
2022/07/07 12:15:38;;;;;;;3.10;1.30;;;19.80;99.90;;;;;;5052577;28;20438;-36
2022/07/07 12:18:05;;;;;;;1.33;0.90;;;19.80;99.90;;;;;;5051950;28;20452;-36
2022/07/07 12:20:31;;;;;;;1.33;1.00;;;19.70;99.90;;;;;;5052508;28;20432;-36
2022/07/07 12:22:59;;;;;;;1.53;1.23;;;19.60;99.90;;;;;;5040883;28;20495;-35
2022/07/07 12:25:26;;;;;;;0.70;0.70;;;19.60;99.90;;;;;;5032589;28;20923;-36
2022/07/07 12:27:59;;;;;;;1.17;0.83;;;19.50;99.90;;;;;;5032773;28;20424;-36
2022/07/07 12:30:27;;;;;;;1.37;1.00;;;19.50;99.90;;;;;;5052295;28;20446;-36
2022/07/07 12:32:53;;;;;;;1.20;0.77;;;19.70;99.90;;;;;;5051993;28;20516;-36
2022/07/07 12:35:39;;;;;;;1.00;0.80;;;19.80;99.90;;;;;;5052492;28;20507;-36
2022/07/07 12:38:07;;;;;;;2.50;1.07;;;19.80;99.90;;;;;;5051624;28;20428;-36
2022/07/07 12:40:36;;;;;;;1.40;0.90;;;19.90;99.90;;;;;;5052194;28;20420;-36
2022/07/07 12:43:12;;;;;;;1.30;0.73;;;19.90;99.90;;;;;;5052188;28;20420;-35
2022/07/07 12:45:39;;;;;;;2.13;1.00;;;19.90;99.90;;;;;;5050701;28;20431;-36
2022/07/07 12:48:15;;;;;;;1.77;0.60;;;19.80;99.90;;;;;;5044236;28;20436;-36
2022/07/07 12:50:42;;;;;;;1.30;0.70;;;19.80;99.90;;;;;;5031792;28;20456;-36